»·PEaware :: DAL771 KSJC-KSLC

DAL771 :: KSJC-KSLC

FLIGHT INFORMATION

Flight Status: Arrived
Operator:
Delta Air Lines
More flights by this operator :: More flights under this callsign
Pilot: Jamie M. (16133)
Aircraft: BOEING 737-800
(B738)
More flights by this aircraft type
Origin: KSJC Mineta San Jose Intl
United States
Destination: KSLC Salt Lake City Intl
United States
More flights between these airports :: More routes between these airports
Route: LOUPE4 BMRNG MOGEE Q124 BVL WAATS5
File this flight plan on PilotEdge
Remarks:
Altitude:
(Current/Filed)
37,000ft
Speed:
(Current/Filed)
454kts
Departed: 06-Jun-18 03:17 PM
Arrived: 06-Jun-18 04:46 PM
Distance/Time
Traveled:
506nm/1:29
Distance/Time
To Go:
Arrived

Flight Plot

Page will automatically refresh every two minutes.

Flight plan parsing failed; only flown route is shown


Map Options




Map Legend


Flown Route
Filed Route
Departure Airport
Arrival Airport
Navaid (VOR, NDB)
Fix

Horizontal Profiles

Position Reports

Time Latitude Longitude Heading Altitude Ground
Speed
06-Jun-18 14:32 37.371198 -121.932471 66 51ft 0kts
06-Jun-18 14:33 37.371198 -121.932471 66 51ft 0kts
06-Jun-18 14:34 37.371198 -121.932471 66 51ft 0kts
06-Jun-18 14:35 37.371198 -121.932471 66 51ft 0kts
06-Jun-18 14:36 37.371198 -121.932471 66 51ft 0kts
06-Jun-18 14:37 37.371198 -121.932471 66 51ft 0kts
06-Jun-18 14:38 37.371198 -121.932471 66 51ft 0kts
06-Jun-18 14:39 37.371198 -121.932471 66 51ft 0kts
06-Jun-18 14:40 37.371198 -121.932471 66 51ft 0kts
06-Jun-18 14:41 37.371198 -121.932471 66 51ft 0kts
06-Jun-18 14:42 37.371198 -121.932471 66 51ft 0kts
06-Jun-18 14:43 37.371198 -121.932471 66 51ft 0kts
06-Jun-18 14:44 37.371198 -121.932471 66 51ft 0kts
06-Jun-18 14:45 37.371198 -121.932471 66 51ft 0kts
06-Jun-18 14:46 37.371198 -121.932471 66 51ft 0kts
06-Jun-18 14:47 37.371198 -121.932471 66 51ft 0kts
06-Jun-18 14:48 37.371198 -121.932471 66 51ft 0kts
06-Jun-18 14:49 37.371198 -121.932471 66 51ft 0kts
06-Jun-18 14:50 37.371198 -121.932471 66 51ft 0kts
06-Jun-18 14:51 37.371198 -121.932471 66 51ft 0kts
06-Jun-18 14:52 37.371198 -121.932471 66 51ft 0kts
06-Jun-18 14:53 37.371198 -121.932471 66 51ft 0kts
06-Jun-18 14:54 37.371198 -121.932471 66 51ft 0kts
06-Jun-18 14:55 37.371198 -121.932471 66 51ft 0kts
06-Jun-18 14:56 37.371198 -121.932471 66 51ft 0kts
06-Jun-18 14:57 37.371198 -121.932471 66 51ft 0kts
06-Jun-18 14:58 37.371198 -121.932471 66 51ft 0kts
06-Jun-18 14:59 37.371198 -121.932471 66 51ft 0kts
06-Jun-18 15:00 37.371198 -121.932471 66 51ft 0kts
06-Jun-18 15:01 37.371198 -121.932472 66 51ft 0kts
06-Jun-18 15:02 37.371059 -121.933084 98 51ft 2kts
06-Jun-18 15:03 37.371074 -121.933177 107 51ft 0kts
06-Jun-18 15:04 37.371074 -121.933177 107 51ft 0kts
06-Jun-18 15:05 37.371253 -121.933488 137 51ft 0kts
06-Jun-18 15:06 37.371255 -121.933490 138 51ft 0kts
06-Jun-18 15:07 37.371255 -121.933490 138 51ft 0kts
06-Jun-18 15:08 37.371234 -121.933466 138 51ft 1kts
06-Jun-18 15:09 37.369887 -121.931957 139 51ft 11kts
06-Jun-18 15:10 37.366901 -121.928717 138 51ft 19kts
06-Jun-18 15:11 37.363604 -121.925093 138 51ft 21kts
06-Jun-18 15:12 37.359838 -121.920970 138 51ft 22kts
06-Jun-18 15:13 37.355761 -121.916512 141 51ft 21kts
06-Jun-18 15:14 37.353025 -121.914525 227 51ft 0kts
06-Jun-18 15:15 37.353025 -121.914525 227 51ft 0kts
06-Jun-18 15:16 37.352598 -121.915154 232 51ft 8kts
06-Jun-18 15:17 37.360466 -121.924278 318 51ft 131kts
06-Jun-18 15:18 37.396566 -121.952897 11 1534ft 204kts
06-Jun-18 15:19 37.398914 -121.888369 133 3515ft 272kts
06-Jun-18 15:20 37.348823 -121.827584 143 6307ft 282kts
06-Jun-18 15:21 37.292780 -121.848358 256 8772ft 280kts
06-Jun-18 15:22 37.326468 -121.914732 330 10658ft 304kts
06-Jun-18 15:23 37.392888 -121.947857 353 12506ft 328kts
06-Jun-18 15:24 37.472852 -121.954970 355 14995ft 341kts
06-Jun-18 15:25 37.558777 -121.962092 354 17570ft 354kts
06-Jun-18 15:26 37.649857 -121.941068 29 20015ft 372kts
06-Jun-18 15:27 37.733258 -121.874860 30 22222ft 387kts
06-Jun-18 15:28 37.817869 -121.806956 30 24222ft 399kts
06-Jun-18 15:29 37.911130 -121.732083 30 26177ft 412kts
06-Jun-18 15:30 38.006442 -121.655568 30 27926ft 424kts
06-Jun-18 15:31 38.101499 -121.579268 29 29555ft 434kts
06-Jun-18 15:32 38.176044 -121.519413 29 31050ft 431kts
06-Jun-18 15:33 38.275093 -121.439898 29 32880ft 427kts
06-Jun-18 15:34 38.362764 -121.349850 49 34419ft 430kts
06-Jun-18 15:35 38.421028 -121.252741 51 35544ft 428kts
06-Jun-18 15:36 38.490613 -121.134470 51 36644ft 429kts
06-Jun-18 15:37 38.561174 -121.014643 52 36954ft 450kts
06-Jun-18 15:38 38.636310 -120.887187 53 36989ft 469kts
06-Jun-18 15:39 38.713866 -120.755838 53 37012ft 468kts
06-Jun-18 15:40 38.791828 -120.624371 52 36838ft 472kts
06-Jun-18 15:41 38.869511 -120.493053 53 37010ft 471kts
06-Jun-18 15:42 38.947337 -120.361803 53 37059ft 471kts
06-Jun-18 15:43 39.022790 -120.234957 54 37075ft 472kts
06-Jun-18 15:44 39.100070 -120.105171 54 37061ft 471kts
06-Jun-18 15:45 39.175917 -119.978019 54 36988ft 471kts
06-Jun-18 15:46 39.255486 -119.844881 54 36960ft 472kts
06-Jun-18 15:47 39.335087 -119.711901 54 36944ft 471kts
06-Jun-18 15:48 39.414780 -119.578982 54 36953ft 471kts
06-Jun-18 15:49 39.494111 -119.446906 53 36947ft 472kts
06-Jun-18 15:50 39.569920 -119.320894 54 36936ft 471kts
06-Jun-18 15:51 39.649928 -119.188210 54 36922ft 472kts
06-Jun-18 15:52 39.729970 -119.055620 54 36890ft 471kts
06-Jun-18 15:53 39.810725 -118.921987 54 36876ft 474kts
06-Jun-18 15:54 39.891953 -118.787236 57 36869ft 474kts
06-Jun-18 15:55 39.952194 -118.636010 65 36876ft 470kts
06-Jun-18 15:56 40.012126 -118.485231 65 36879ft 471kts
06-Jun-18 15:57 40.070519 -118.339858 65 36877ft 471kts
06-Jun-18 15:58 40.129516 -118.193692 65 36869ft 470kts
06-Jun-18 15:59 40.190652 -118.042602 65 36868ft 471kts
06-Jun-18 16:00 40.233318 -117.883362 78 36876ft 465kts
06-Jun-18 16:01 40.268419 -117.720721 77 36877ft 465kts
06-Jun-18 16:02 40.304411 -117.558342 76 36878ft 466kts
06-Jun-18 16:03 40.340735 -117.395681 76 36868ft 465kts
06-Jun-18 16:04 40.376297 -117.237495 77 36860ft 465kts
06-Jun-18 16:05 40.413047 -117.074897 76 36860ft 466kts
06-Jun-18 16:06 40.450292 -116.910899 75 36862ft 473kts
06-Jun-18 16:07 40.488086 -116.745572 75 36863ft 473kts
06-Jun-18 16:08 40.526010 -116.580539 75 36864ft 473kts
06-Jun-18 16:09 40.564143 -116.415391 74 36865ft 473kts
06-Jun-18 16:10 40.579632 -116.249472 88 36884ft 468kts
06-Jun-18 16:11 40.590073 -116.079207 88 36908ft 468kts
06-Jun-18 16:12 40.601065 -115.908555 87 36909ft 468kts
06-Jun-18 16:13 40.612292 -115.738288 87 36910ft 468kts
06-Jun-18 16:14 40.623780 -115.567732 87 36910ft 468kts
06-Jun-18 16:15 40.635486 -115.397458 87 36894ft 469kts
06-Jun-18 16:16 40.647274 -115.229711 87 35434ft 469kts
06-Jun-18 16:17 40.659485 -115.059225 87 33463ft 473kts
06-Jun-18 16:18 40.672085 -114.886272 87 31499ft 478kts
06-Jun-18 16:19 40.685011 -114.711979 87 29730ft 481kts
06-Jun-18 16:20 40.698251 -114.536477 87 28740ft 485kts
06-Jun-18 16:21 40.706592 -114.359499 90 27771ft 485kts
06-Jun-18 16:22 40.712481 -114.188780 90 26644ft 486kts
06-Jun-18 16:23 40.718359 -114.015115 90 25395ft 488kts
06-Jun-18 16:24 40.724212 -113.836085 90 24117ft 490kts
06-Jun-18 16:25 40.727186 -113.659627 92 22808ft 461kts
06-Jun-18 16:26 40.726678 -113.496026 92 21514ft 443kts
06-Jun-18 16:27 40.726165 -113.346865 93 20739ft 397kts
06-Jun-18 16:28 40.725623 -113.236157 93 19897ft 398kts
06-Jun-18 16:29 40.724803 -113.093079 93 18735ft 389kts
06-Jun-18 16:30 40.723833 -112.952049 93 17545ft 383kts
06-Jun-18 16:31 40.722710 -112.813133 93 17032ft 381kts
06-Jun-18 16:32 40.721410 -112.673442 93 15831ft 389kts
06-Jun-18 16:33 40.720051 -112.536448 93 14344ft 356kts
06-Jun-18 16:34 40.716440 -112.404288 94 13253ft 359kts
06-Jun-18 16:35 40.712512 -112.278513 95 12206ft 353kts
06-Jun-18 16:36 40.721919 -112.153458 59 12015ft 334kts
06-Jun-18 16:37 40.798067 -112.100512 356 12034ft 323kts
06-Jun-18 16:38 40.886159 -112.107374 355 11817ft 320kts
06-Jun-18 16:39 40.971880 -112.111139 356 10700ft 301kts
06-Jun-18 16:40 41.048911 -112.090623 59 9222ft 289kts
06-Jun-18 16:41 41.023167 -112.022111 169 8846ft 223kts
06-Jun-18 16:42 40.962556 -112.015020 180 7179ft 223kts
06-Jun-18 16:43 40.901509 -112.010466 177 6023ft 200kts
06-Jun-18 16:44 40.848117 -112.003607 176 5064ft 184kts
06-Jun-18 16:45 40.803112 -111.998601 182 4225ft 149kts
06-Jun-18 16:46 40.791114 -111.995832 109 4223ft 0kts
06-Jun-18 16:47 40.791114 -111.995832 109 4223ft 0kts
06-Jun-18 16:48 40.790971 -111.994203 84 4223ft 13kts
06-Jun-18 16:49 40.791374 -111.988123 87 4223ft 15kts
06-Jun-18 16:50 40.790001 -111.986033 182 4223ft 8kts
06-Jun-18 16:51 40.789342 -111.985287 116 4223ft 0kts
06-Jun-18 16:52 40.789332 -111.985259 115 4223ft 0kts
06-Jun-18 16:53 40.789332 -111.985259 115 4223ft 0kts

Navigation Log

Ident Type
Flight plan parsing failed, navigation log unavailable